sensor_id;sensor_type;location;lat;lon;timestamp;pressure;altitude;pressure_sealevel;temperature;humidity
58473;BME280;44775;51.564;5.460;2024-01-16T00:02:10;100636.97;;;-0.42;100.00
58473;BME280;44775;51.564;5.460;2024-01-16T00:04:38;100648.84;;;-0.37;100.00
58473;BME280;44775;51.564;5.460;2024-01-16T00:07:05;100649.19;;;-0.03;100.00
58473;BME280;44775;51.564;5.460;2024-01-16T00:09:33;100649.06;;;-0.14;100.00
58473;BME280;44775;51.564;5.460;2024-01-16T00:11:58;100653.16;;;-0.23;100.00
58473;BME280;44775;51.564;5.460;2024-01-16T00:14:23;100645.16;;;-0.21;100.00
58473;BME280;44775;51.564;5.460;2024-01-16T00:16:49;100643.81;;;-0.14;100.00
58473;BME280;44775;51.564;5.460;2024-01-16T00:19:14;100641.28;;;-0.29;100.00
58473;BME280;44775;51.564;5.460;2024-01-16T00:21:43;100648.97;;;-0.26;100.00
58473;BME280;44775;51.564;5.460;2024-01-16T00:24:13;100648.66;;;-0.34;100.00
58473;BME280;44775;51.564;5.460;2024-01-16T00:26:38;100651.91;;;-0.30;100.00
58473;BME280;44775;51.564;5.460;2024-01-16T00:29:03;100649.38;;;-0.32;100.00
58473;BME280;44775;51.564;5.460;2024-01-16T00:31:29;100655.44;;;-0.31;100.00
58473;BME280;44775;51.564;5.460;2024-01-16T00:33:54;100659.66;;;-0.29;100.00
58473;BME280;44775;51.564;5.460;2024-01-16T00:36:19;100658.00;;;-0.30;100.00
58473;BME280;44775;51.564;5.460;2024-01-16T00:38:45;100668.41;;;-0.15;100.00
58473;BME280;44775;51.564;5.460;2024-01-16T00:41:12;100657.78;;;-0.14;100.00
58473;BME280;44775;51.564;5.460;2024-01-16T00:43:39;100637.50;;;-0.25;100.00
58473;BME280;44775;51.564;5.460;2024-01-16T00:46:04;100650.22;;;-0.18;100.00
58473;BME280;44775;51.564;5.460;2024-01-16T00:48:30;100646.34;;;-0.26;100.00
58473;BME280;44775;51.564;5.460;2024-01-16T00:50:55;100654.53;;;-0.30;100.00
58473;BME280;44775;51.564;5.460;2024-01-16T00:53:21;100651.66;;;-0.27;100.00
58473;BME280;44775;51.564;5.460;2024-01-16T00:55:46;100654.41;;;-0.29;100.00
58473;BME280;44775;51.564;5.460;2024-01-16T00:58:11;100656.84;;;-0.26;100.00
58473;BME280;44775;51.564;5.460;2024-01-16T01:00:36;100664.09;;;-0.16;100.00
58473;BME280;44775;51.564;5.460;2024-01-16T01:03:03;100658.84;;;-0.29;100.00
58473;BME280;44775;51.564;5.460;2024-01-16T01:05:31;100653.78;;;-0.19;100.00
58473;BME280;44775;51.564;5.460;2024-01-16T01:07:57;100665.53;;;-0.25;100.00
58473;BME280;44775;51.564;5.460;2024-01-16T01:10:23;100661.25;;;-0.26;100.00
58473;BME280;44775;51.564;5.460;2024-01-16T01:12:49;100665.97;;;-0.18;100.00
58473;BME280;44775;51.564;5.460;2024-01-16T01:15:15;100661.44;;;-0.29;100.00
58473;BME280;44775;51.564;5.460;2024-01-16T01:17:41;100658.41;;;-0.23;100.00
58473;BME280;44775;51.564;5.460;2024-01-16T01:20:08;100661.88;;;-0.22;100.00
58473;BME280;44775;51.564;5.460;2024-01-16T01:22:33;100667.66;;;-0.17;100.00
58473;BME280;44775;51.564;5.460;2024-01-16T01:24:59;100653.69;;;-0.18;100.00
58473;BME280;44775;51.564;5.460;2024-01-16T01:27:24;100661.25;;;-0.26;100.00
58473;BME280;44775;51.564;5.460;2024-01-16T01:29:49;100659.66;;;-0.29;100.00
58473;BME280;44775;51.564;5.460;2024-01-16T01:32:14;100652.94;;;-0.33;100.00
58473;BME280;44775;51.564;5.460;2024-01-16T01:34:42;100657.66;;;-0.25;100.00
58473;BME280;44775;51.564;5.460;2024-01-16T01:37:08;100657.34;;;-0.20;100.00
58473;BME280;44775;51.564;5.460;2024-01-16T01:39:33;100656.41;;;-0.19;100.00
58473;BME280;44775;51.564;5.460;2024-01-16T01:41:58;100657.66;;;0.13;100.00
58473;BME280;44775;51.564;5.460;2024-01-16T01:44:24;100667.34;;;-0.13;100.00
58473;BME280;44775;51.564;5.460;2024-01-16T01:46:50;100656.53;;;-0.08;100.00
58473;BME280;44775;51.564;5.460;2024-01-16T01:49:16;100662.41;;;-0.17;100.00
58473;BME280;44775;51.564;5.460;2024-01-16T01:51:42;100674.91;;;-0.21;100.00
58473;BME280;44775;51.564;5.460;2024-01-16T01:54:08;100677.94;;;-0.14;100.00
58473;BME280;44775;51.564;5.460;2024-01-16T01:56:34;100667.97;;;-0.22;100.00
58473;BME280;44775;51.564;5.460;2024-01-16T01:59:00;100675.66;;;-0.19;100.00
58473;BME280;44775;51.564;5.460;2024-01-16T02:01:28;100674.69;;;-0.18;100.00
58473;BME280;44775;51.564;5.460;2024-01-16T02:03:55;100678.16;;;-0.17;100.00
58473;BME280;44775;51.564;5.460;2024-01-16T02:06:21;100678.16;;;-0.17;100.00
58473;BME280;44775;51.564;5.460;2024-01-16T02:08:47;100681.31;;;-0.12;100.00
58473;BME280;44775;51.564;5.460;2024-01-16T02:11:12;100664.63;;;0.02;100.00
58473;BME280;44775;51.564;5.460;2024-01-16T02:13:37;100670.50;;;0.05;100.00
58473;BME280;44775;51.564;5.460;2024-01-16T02:16:03;100669.56;;;-0.07;100.00
58473;BME280;44775;51.564;5.460;2024-01-16T02:18:29;100678.38;;;0.05;100.00
58473;BME280;44775;51.564;5.460;2024-01-16T02:21:00;100674.38;;;-0.01;100.00
58473;BME280;44775;51.564;5.460;2024-01-16T02:23:29;100674.59;;;0.09;100.00
58473;BME280;44775;51.564;5.460;2024-01-16T02:25:55;100669.66;;;-0.08;100.00
58473;BME280;44775;51.564;5.460;2024-01-16T02:28:20;100669.78;;;-0.10;100.00
58473;BME280;44775;51.564;5.460;2024-01-16T02:30:45;100679.53;;;0.01;100.00
58473;BME280;44775;51.564;5.460;2024-01-16T02:33:11;100682.59;;;0.08;100.00
58473;BME280;44775;51.564;5.460;2024-01-16T02:35:36;100679.53;;;-0.12;100.00
58473;BME280;44775;51.564;5.460;2024-01-16T02:38:02;100691.41;;;-0.19;100.00
58473;BME280;44775;51.564;5.460;2024-01-16T02:40:27;100690.66;;;-0.21;100.00
58473;BME280;44775;51.564;5.460;2024-01-16T02:42:52;100689.81;;;-0.21;100.00
58473;BME280;44775;51.564;5.460;2024-01-16T02:45:18;100694.13;;;-0.20;100.00
58473;BME280;44775;51.564;5.460;2024-01-16T02:47:43;100686.91;;;-0.17;100.00
58473;BME280;44775;51.564;5.460;2024-01-16T02:50:09;100688.84;;;-0.20;100.00
58473;BME280;44775;51.564;5.460;2024-01-16T02:52:38;100680.47;;;-0.26;100.00
58473;BME280;44775;51.564;5.460;2024-01-16T02:55:03;100686.25;;;-0.08;100.00
58473;BME280;44775;51.564;5.460;2024-01-16T02:57:30;100693.31;;;0.05;100.00
58473;BME280;44775;51.564;5.460;2024-01-16T02:59:55;100697.53;;;0.07;100.00
58473;BME280;44775;51.564;5.460;2024-01-16T03:02:21;100694.16;;;0.05;100.00
58473;BME280;44775;51.564;5.460;2024-01-16T03:04:47;100694.31;;;0.53;100.00
58473;BME280;44775;51.564;5.460;2024-01-16T03:07:13;100696.44;;;0.22;100.00
58473;BME280;44775;51.564;5.460;2024-01-16T03:09:38;100695.72;;;0.20;100.00
58473;BME280;44775;51.564;5.460;2024-01-16T03:12:04;100686.38;;;0.04;100.00
58473;BME280;44775;51.564;5.460;2024-01-16T03:14:29;100694.25;;;0.16;100.00
58473;BME280;44775;51.564;5.460;2024-01-16T03:17:00;100686.63;;;0.50;100.00
58473;BME280;44775;51.564;5.460;2024-01-16T03:19:26;100695.00;;;0.31;100.00
58473;BME280;44775;51.564;5.460;2024-01-16T03:21:51;100687.59;;;0.23;100.00
58473;BME280;44775;51.564;5.460;2024-01-16T03:24:17;100695.50;;;0.36;100.00
58473;BME280;44775;51.564;5.460;2024-01-16T03:26:42;100691.19;;;0.10;100.00
58473;BME280;44775;51.564;5.460;2024-01-16T03:29:08;100693.41;;;0.41;100.00
58473;BME280;44775;51.564;5.460;2024-01-16T03:31:33;100700.53;;;0.52;100.00
58473;BME280;44775;51.564;5.460;2024-01-16T03:33:59;100694.88;;;-0.06;100.00
58473;BME280;44775;51.564;5.460;2024-01-16T03:36:24;100684.56;;;-0.21;100.00
58473;BME280;44775;51.564;5.460;2024-01-16T03:38:50;100693.47;;;-0.24;100.00
58473;BME280;44775;51.564;5.460;2024-01-16T03:41:15;100688.84;;;-0.20;100.00
58473;BME280;44775;51.564;5.460;2024-01-16T03:43:40;100682.34;;;-0.28;100.00
58473;BME280;44775;51.564;5.460;2024-01-16T03:46:06;100681.84;;;-0.20;100.00
58473;BME280;44775;51.564;5.460;2024-01-16T03:48:31;100679.63;;;-0.26;100.00
58473;BME280;44775;51.564;5.460;2024-01-16T03:50:57;100673.75;;;-0.30;100.00
58473;BME280;44775;51.564;5.460;2024-01-16T03:53:22;100670.16;;;-0.29;100.00
58473;BME280;44775;51.564;5.460;2024-01-16T03:55:48;100672.59;;;-0.26;100.00
58473;BME280;44775;51.564;5.460;2024-01-16T03:58:15;100676.47;;;-0.18;100.00
58473;BME280;44775;51.564;5.460;2024-01-16T04:00:40;100682.97;;;-0.24;100.00
58473;BME280;44775;51.564;5.460;2024-01-16T04:03:06;100681.41;;;-0.27;100.00
58473;BME280;44775;51.564;5.460;2024-01-16T04:05:32;100679.72;;;-0.28;100.00
58473;BME280;44775;51.564;5.460;2024-01-16T04:07:57;100670.81;;;-0.25;100.00
58473;BME280;44775;51.564;5.460;2024-01-16T04:10:23;100665.31;;;-0.35;100.00
58473;BME280;44775;51.564;5.460;2024-01-16T04:12:48;100657.44;;;-0.35;100.00
58473;BME280;44775;51.564;5.460;2024-01-16T04:15:14;100662.19;;;-0.40;100.00
58473;BME280;44775;51.564;5.460;2024-01-16T04:17:39;100656.19;;;-0.42;100.00
58473;BME280;44775;51.564;5.460;2024-01-16T04:20:05;100652.91;;;-0.45;100.00
58473;BME280;44775;51.564;5.460;2024-01-16T04:22:32;100655.03;;;-0.51;100.00
58473;BME280;44775;51.564;5.460;2024-01-16T04:24:57;100641.34;;;-0.56;100.00
58473;BME280;44775;51.564;5.460;2024-01-16T04:27:23;100643.16;;;-0.56;100.00
58473;BME280;44775;51.564;5.460;2024-01-16T04:29:49;100643.34;;;-0.59;100.00
58473;BME280;44775;51.564;5.460;2024-01-16T04:32:14;100642.50;;;-0.60;100.00
58473;BME280;44775;51.564;5.460;2024-01-16T04:34:39;100633.16;;;-0.64;100.00
58473;BME280;44775;51.564;5.460;2024-01-16T04:37:04;100644.59;;;-0.65;100.00
58473;BME280;44775;51.564;5.460;2024-01-16T04:39:30;100644.91;;;-0.69;100.00
58473;BME280;44775;51.564;5.460;2024-01-16T04:41:55;100636.78;;;-0.79;100.00
58473;BME280;44775;51.564;5.460;2024-01-16T04:44:20;100640.44;;;-0.82;100.00
58473;BME280;44775;51.564;5.460;2024-01-16T04:46:45;100635.19;;;-0.82;100.00
58473;BME280;44775;51.564;5.460;2024-01-16T04:49:11;100637.50;;;-0.90;100.00
58473;BME280;44775;51.564;5.460;2024-01-16T04:51:36;100638.78;;;-0.83;100.00
58473;BME280;44775;51.564;5.460;2024-01-16T04:54:01;100646.09;;;-0.88;100.00
58473;BME280;44775;51.564;5.460;2024-01-16T04:56:27;100643.03;;;-0.95;100.00
58473;BME280;44775;51.564;5.460;2024-01-16T04:58:52;100642.47;;;-0.73;100.00
58473;BME280;44775;51.564;5.460;2024-01-16T05:01:18;100642.78;;;-0.77;100.00
58473;BME280;44775;51.564;5.460;2024-01-16T05:03:43;100643.69;;;-0.91;100.00
58473;BME280;44775;51.564;5.460;2024-01-16T05:06:15;100639.16;;;-0.89;100.00
58473;BME280;44775;51.564;5.460;2024-01-16T05:08:41;100629.69;;;-1.04;100.00
58473;BME280;44775;51.564;5.460;2024-01-16T05:11:07;100640.72;;;-0.99;100.00
58473;BME280;44775;51.564;5.460;2024-01-16T05:13:32;100638.47;;;-1.05;100.00
58473;BME280;44775;51.564;5.460;2024-01-16T05:15:57;100633.22;;;-1.05;100.00
58473;BME280;44775;51.564;5.460;2024-01-16T05:18:23;100631.56;;;-1.06;100.00
58473;BME280;44775;51.564;5.460;2024-01-16T05:20:48;100625.09;;;-1.01;100.00
58473;BME280;44775;51.564;5.460;2024-01-16T05:23:13;100622.03;;;-1.07;100.00
58473;BME280;44775;51.564;5.460;2024-01-16T05:25:39;100619.94;;;-1.02;100.00
58473;BME280;44775;51.564;5.460;2024-01-16T05:28:04;100624.25;;;-1.01;100.00
58473;BME280;44775;51.564;5.460;2024-01-16T05:30:29;100612.25;;;-1.05;100.00
58473;BME280;44775;51.564;5.460;2024-01-16T05:32:55;100623.31;;;-1.00;100.00
58473;BME280;44775;51.564;5.460;2024-01-16T05:35:21;100609.09;;;-1.10;100.00
58473;BME280;44775;51.564;5.460;2024-01-16T05:37:46;100607.84;;;-1.05;100.00
58473;BME280;44775;51.564;5.460;2024-01-16T05:40:12;100610.78;;;-1.09;100.00
58473;BME280;44775;51.564;5.460;2024-01-16T05:42:38;100605.53;;;-1.09;100.00
58473;BME280;44775;51.564;5.460;2024-01-16T05:45:04;100602.19;;;-1.11;100.00
58473;BME280;44775;51.564;5.460;2024-01-16T05:47:29;100612.00;;;-1.15;100.00
58473;BME280;44775;51.564;5.460;2024-01-16T05:49:56;100612.88;;;-1.14;100.00
58473;BME280;44775;51.564;5.460;2024-01-16T05:52:22;100609.69;;;-1.20;100.00
58473;BME280;44775;51.564;5.460;2024-01-16T05:54:47;100599.41;;;-1.23;100.00
58473;BME280;44775;51.564;5.460;2024-01-16T05:57:12;100595.19;;;-1.25;100.00
58473;BME280;44775;51.564;5.460;2024-01-16T05:59:38;100599.84;;;-1.16;100.00
58473;BME280;44775;51.564;5.460;2024-01-16T06:02:03;100599.78;;;-1.29;100.00
58473;BME280;44775;51.564;5.460;2024-01-16T06:04:31;100589.06;;;-1.38;100.00
58473;BME280;44775;51.564;5.460;2024-01-16T06:06:56;100597.78;;;-1.38;100.00
58473;BME280;44775;51.564;5.460;2024-01-16T06:09:21;100597.34;;;-1.45;100.00
58473;BME280;44775;51.564;5.460;2024-01-16T06:11:47;100605.72;;;-1.12;100.00
58473;BME280;44775;51.564;5.460;2024-01-16T06:14:13;100592.16;;;-1.46;100.00
58473;BME280;44775;51.564;5.460;2024-01-16T06:16:38;100603.59;;;-1.47;100.00
58473;BME280;44775;51.564;5.460;2024-01-16T06:19:03;100598.25;;;-1.46;100.00
58473;BME280;44775;51.564;5.460;2024-01-16T06:21:29;100590.94;;;-1.40;100.00
58473;BME280;44775;51.564;5.460;2024-01-16T06:23:55;100584.75;;;-1.39;100.00
58473;BME280;44775;51.564;5.460;2024-01-16T06:26:20;100588.34;;;-1.40;100.00
58473;BME280;44775;51.564;5.460;2024-01-16T06:28:46;100577.19;;;-1.44;100.00
58473;BME280;44775;51.564;5.460;2024-01-16T06:31:11;100586.75;;;-1.43;100.00
58473;BME280;44775;51.564;5.460;2024-01-16T06:33:37;100584.44;;;-1.48;100.00
58473;BME280;44775;51.564;5.460;2024-01-16T06:36:03;100591.44;;;-1.48;100.00
58473;BME280;44775;51.564;5.460;2024-01-16T06:38:31;100592.75;;;-1.55;100.00
58473;BME280;44775;51.564;5.460;2024-01-16T06:40:57;100593.81;;;-1.58;100.00
58473;BME280;44775;51.564;5.460;2024-01-16T06:43:23;100600.19;;;-1.62;100.00
58473;BME280;44775;51.564;5.460;2024-01-16T06:45:48;100601.94;;;-1.62;100.00
58473;BME280;44775;51.564;5.460;2024-01-16T06:48:14;100601.56;;;-1.56;100.00
58473;BME280;44775;51.564;5.460;2024-01-16T06:50:39;100598.28;;;-1.60;100.00
58473;BME280;44775;51.564;5.460;2024-01-16T06:53:04;100595.88;;;-1.63;100.00
58473;BME280;44775;51.564;5.460;2024-01-16T06:55:30;100614.47;;;-1.53;100.00
58473;BME280;44775;51.564;5.460;2024-01-16T06:57:55;100610.84;;;-1.65;100.00
58473;BME280;44775;51.564;5.460;2024-01-16T07:00:20;100608.25;;;-1.65;100.00
58473;BME280;44775;51.564;5.460;2024-01-16T07:02:48;100591.47;;;-1.62;100.00
58473;BME280;44775;51.564;5.460;2024-01-16T07:05:13;100609.22;;;-1.53;100.00
58473;BME280;44775;51.564;5.460;2024-01-16T07:07:38;100612.03;;;-1.56;100.00
58473;BME280;44775;51.564;5.460;2024-01-16T07:10:05;100610.75;;;-1.63;100.00
58473;BME280;44775;51.564;5.460;2024-01-16T07:12:33;100615.31;;;-1.53;100.00
58473;BME280;44775;51.564;5.460;2024-01-16T07:14:58;100622.72;;;-1.59;100.00
58473;BME280;44775;51.564;5.460;2024-01-16T07:17:24;100614.66;;;-1.56;100.00
58473;BME280;44775;51.564;5.460;2024-01-16T07:19:49;100626.16;;;-1.59;100.00
58473;BME280;44775;51.564;5.460;2024-01-16T07:22:14;100627.94;;;-1.59;100.00
58473;BME280;44775;51.564;5.460;2024-01-16T07:24:41;100622.91;;;-1.62;100.00
58473;BME280;44775;51.564;5.460;2024-01-16T07:27:06;100630.81;;;-1.35;100.00
58473;BME280;44775;51.564;5.460;2024-01-16T07:29:31;100632.81;;;-1.53;100.00
58473;BME280;44775;51.564;5.460;2024-01-16T07:31:56;100634.28;;;-1.49;100.00
58473;BME280;44775;51.564;5.460;2024-01-16T07:34:22;100631.88;;;-1.52;100.00
58473;BME280;44775;51.564;5.460;2024-01-16T07:36:48;100617.53;;;-1.47;100.00
58473;BME280;44775;51.564;5.460;2024-01-16T07:39:13;100629.66;;;-1.58;100.00
58473;BME280;44775;51.564;5.460;2024-01-16T07:41:39;100631.72;;;-1.63;100.00
58473;BME280;44775;51.564;5.460;2024-01-16T07:44:05;100623.09;;;-1.51;100.00
58473;BME280;44775;51.564;5.460;2024-01-16T07:46:30;100629.66;;;-1.58;100.00
58473;BME280;44775;51.564;5.460;2024-01-16T07:48:55;100637.50;;;-1.58;100.00
58473;BME280;44775;51.564;5.460;2024-01-16T07:51:20;100638.88;;;-1.53;100.00
58473;BME280;44775;51.564;5.460;2024-01-16T07:53:46;100633.00;;;-1.56;100.00
58473;BME280;44775;51.564;5.460;2024-01-16T07:56:11;100643.09;;;-1.50;100.00
58473;BME280;44775;51.564;5.460;2024-01-16T07:58:37;100653.13;;;-1.57;100.00
58473;BME280;44775;51.564;5.460;2024-01-16T08:01:03;100652.94;;;-1.54;100.00
58473;BME280;44775;51.564;5.460;2024-01-16T08:03:28;100659.03;;;-1.53;100.00
58473;BME280;44775;51.564;5.460;2024-01-16T08:05:53;100658.84;;;-1.50;100.00
58473;BME280;44775;51.564;5.460;2024-01-16T08:08:19;100660.31;;;-1.46;100.00
58473;BME280;44775;51.564;5.460;2024-01-16T08:10:44;100659.59;;;-1.48;100.00
58473;BME280;44775;51.564;5.460;2024-01-16T08:13:09;100651.72;;;-1.48;100.00
58473;BME280;44775;51.564;5.460;2024-01-16T08:15:35;100644.06;;;-1.51;100.00
58473;BME280;44775;51.564;5.460;2024-01-16T08:18:00;100638.25;;;-1.56;100.00
58473;BME280;44775;51.564;5.460;2024-01-16T08:20:26;100661.22;;;-1.33;100.00
58473;BME280;44775;51.564;5.460;2024-01-16T08:22:51;100654.88;;;-1.43;100.00
58473;BME280;44775;51.564;5.460;2024-01-16T08:25:17;100656.66;;;-1.44;100.00
58473;BME280;44775;51.564;5.460;2024-01-16T08:27:42;100659.09;;;-1.40;100.00
58473;BME280;44775;51.564;5.460;2024-01-16T08:30:09;100653.94;;;-1.42;100.00
58473;BME280;44775;51.564;5.460;2024-01-16T08:32:36;100643.09;;;-1.50;100.00
58473;BME280;44775;51.564;5.460;2024-01-16T08:35:01;100656.09;;;-1.49;100.00
58473;BME280;44775;51.564;5.460;2024-01-16T08:37:27;100654.13;;;-1.31;100.00
58473;BME280;44775;51.564;5.460;2024-01-16T08:39:52;100667.03;;;-1.42;100.00
58473;BME280;44775;51.564;5.460;2024-01-16T08:42:17;100663.31;;;-1.38;100.00
58473;BME280;44775;51.564;5.460;2024-01-16T08:44:43;100659.47;;;-1.47;100.00
58473;BME280;44775;51.564;5.460;2024-01-16T08:47:09;100662.84;;;-1.45;100.00
58473;BME280;44775;51.564;5.460;2024-01-16T08:49:34;100664.03;;;-1.36;100.00
58473;BME280;44775;51.564;5.460;2024-01-16T08:52:00;100660.22;;;-1.45;100.00
58473;BME280;44775;51.564;5.460;2024-01-16T08:54:27;100654.22;;;-1.47;100.00
58473;BME280;44775;51.564;5.460;2024-01-16T08:56:52;100650.59;;;-1.44;100.00
58473;BME280;44775;51.564;5.460;2024-01-16T08:59:18;100659.94;;;-1.40;100.00
58473;BME280;44775;51.564;5.460;2024-01-16T09:01:43;100656.38;;;-1.39;100.00
58473;BME280;44775;51.564;5.460;2024-01-16T09:04:08;100665.94;;;-1.38;100.00
58473;BME280;44775;51.564;5.460;2024-01-16T09:06:34;100655.50;;;-1.25;100.00
58473;BME280;44775;51.564;5.460;2024-01-16T09:08:59;100667.69;;;-1.24;100.00
58473;BME280;44775;51.564;5.460;2024-01-16T09:11:24;100655.09;;;-1.19;100.00
58473;BME280;44775;51.564;5.460;2024-01-16T09:13:51;100656.69;;;-1.16;100.00
58473;BME280;44775;51.564;5.460;2024-01-16T09:16:17;100656.69;;;-1.16;100.00
58473;BME280;44775;51.564;5.460;2024-01-16T09:18:42;100655.34;;;-1.09;100.00
58473;BME280;44775;51.564;5.460;2024-01-16T09:21:07;100659.91;;;-0.99;100.00
58473;BME280;44775;51.564;5.460;2024-01-16T09:23:32;100658.22;;;-1.00;100.00
58473;BME280;44775;51.564;5.460;2024-01-16T09:25:58;100659.63;;;-0.94;100.00
58473;BME280;44775;51.564;5.460;2024-01-16T09:28:23;100659.44;;;-0.91;100.00
58473;BME280;44775;51.564;5.460;2024-01-16T09:30:49;100657.84;;;-0.93;100.00
58473;BME280;44775;51.564;5.460;2024-01-16T09:33:14;100657.91;;;-0.81;100.00
58473;BME280;44775;51.564;5.460;2024-01-16T09:35:41;100652.84;;;-0.71;100.00
58473;BME280;44775;51.564;5.460;2024-01-16T09:38:07;100640.50;;;-0.69;100.00
58473;BME280;44775;51.564;5.460;2024-01-16T09:40:33;100637.63;;;-0.79;100.00
58473;BME280;44775;51.564;5.460;2024-01-16T09:43:00;100651.19;;;-0.72;100.00
58473;BME280;44775;51.564;5.460;2024-01-16T09:45:26;100656.63;;;-0.75;100.00
58473;BME280;44775;51.564;5.460;2024-01-16T09:47:54;100649.84;;;-0.65;100.00
58473;BME280;44775;51.564;5.460;2024-01-16T09:50:19;100649.50;;;-0.73;100.00
58473;BME280;44775;51.564;5.460;2024-01-16T09:52:46;100657.06;;;-0.68;100.00
58473;BME280;44775;51.564;5.460;2024-01-16T09:55:12;100656.97;;;-0.67;100.00
58473;BME280;44775;51.564;5.460;2024-01-16T09:57:39;100662.31;;;-0.68;100.00
58473;BME280;44775;51.564;5.460;2024-01-16T10:00:09;100651.75;;;-0.54;100.00
58473;BME280;44775;51.564;5.460;2024-01-16T10:02:41;100630.22;;;-0.59;100.00
58473;BME280;44775;51.564;5.460;2024-01-16T10:05:11;100636.81;;;-0.66;100.00
58473;BME280;44775;51.564;5.460;2024-01-16T10:07:41;100633.56;;;-0.70;100.00
58473;BME280;44775;51.564;5.460;2024-01-16T10:10:08;100644.06;;;-0.70;100.00
58473;BME280;44775;51.564;5.460;2024-01-16T10:12:37;100639.69;;;-0.57;100.00
58473;BME280;44775;51.564;5.460;2024-01-16T10:15:07;100633.59;;;-0.57;100.00
58473;BME280;44775;51.564;5.460;2024-01-16T10:17:40;100637.59;;;-0.39;100.00
58473;BME280;44775;51.564;5.460;2024-01-16T10:20:06;100630.34;;;-0.48;100.00
58473;BME280;44775;51.564;5.460;2024-01-16T10:22:32;100632.22;;;-0.37;100.00
58473;BME280;44775;51.564;5.460;2024-01-16T10:25:09;100630.88;;;-0.17;100.00
58473;BME280;44775;51.564;5.460;2024-01-16T10:27:35;100621.44;;;-0.20;100.00
58473;BME280;44775;51.564;5.460;2024-01-16T10:30:02;100625.84;;;-0.08;100.00
58473;BME280;44775;51.564;5.460;2024-01-16T10:32:30;100622.47;;;0.03;100.00
58473;BME280;44775;51.564;5.460;2024-01-16T10:35:02;100634.22;;;0.23;100.00
58473;BME280;44775;51.564;5.460;2024-01-16T10:37:46;100626.88;;;0.28;100.00
58473;BME280;44775;51.564;5.460;2024-01-16T10:40:18;100623.06;;;0.32;100.00
58473;BME280;44775;51.564;5.460;2024-01-16T10:45:25;100610.34;;;0.26;100.00
58473;BME280;44775;51.564;5.460;2024-01-16T10:48:07;100610.00;;;0.43;100.00
58473;BME280;44775;51.564;5.460;2024-01-16T10:50:33;100611.63;;;0.57;100.00
58473;BME280;44775;51.564;5.460;2024-01-16T10:53:00;100615.84;;;0.60;100.00
58473;BME280;44775;51.564;5.460;2024-01-16T10:55:28;100622.13;;;0.94;100.00
58473;BME280;44775;51.564;5.460;2024-01-16T10:57:55;100614.44;;;0.91;100.00
58473;BME280;44775;51.564;5.460;2024-01-16T11:00:22;100611.44;;;1.08;100.00
58473;BME280;44775;51.564;5.460;2024-01-16T11:03:11;100606.94;;;1.22;100.00
58473;BME280;44775;51.564;5.460;2024-01-16T11:05:38;100598.94;;;0.99;100.00
58473;BME280;44775;51.564;5.460;2024-01-16T11:08:05;100592.09;;;1.21;100.00
58473;BME280;44775;51.564;5.460;2024-01-16T11:10:31;100595.94;;;1.28;100.00
58473;BME280;44775;51.564;5.460;2024-01-16T11:13:01;100601.72;;;1.44;100.00
58473;BME280;44775;51.564;5.460;2024-01-16T11:15:28;100598.31;;;1.66;100.00
58473;BME280;44775;51.564;5.460;2024-01-16T11:17:54;100593.06;;;2.00;100.00
58473;BME280;44775;51.564;5.460;2024-01-16T11:20:20;100595.09;;;2.19;100.00
58473;BME280;44775;51.564;5.460;2024-01-16T11:22:46;100594.25;;;2.29;100.00
58473;BME280;44775;51.564;5.460;2024-01-16T11:25:14;100597.00;;;2.28;100.00
58473;BME280;44775;51.564;5.460;2024-01-16T11:27:41;100593.41;;;2.18;100.00
58473;BME280;44775;51.564;5.460;2024-01-16T11:30:08;100599.63;;;2.39;100.00
58473;BME280;44775;51.564;5.460;2024-01-16T11:32:38;100588.25;;;2.50;100.00
58473;BME280;44775;51.564;5.460;2024-01-16T11:35:06;100588.78;;;2.65;100.00
58473;BME280;44775;51.564;5.460;2024-01-16T11:37:33;100587.88;;;2.54;100.00
58473;BME280;44775;51.564;5.460;2024-01-16T11:42:42;100595.31;;;3.14;100.00
58473;BME280;44775;51.564;5.460;2024-01-16T11:45:47;100597.63;;;3.07;100.00
58473;BME280;44775;51.564;5.460;2024-01-16T11:48:22;100599.66;;;3.15;100.00
58473;BME280;44775;51.564;5.460;2024-01-16T11:50:48;100594.06;;;3.08;100.00
58473;BME280;44775;51.564;5.460;2024-01-16T11:53:33;100592.66;;;3.25;100.00
58473;BME280;44775;51.564;5.460;2024-01-16T12:01:45;100583.31;;;3.42;100.00
58473;BME280;44775;51.564;5.460;2024-01-16T12:04:10;100588.66;;;3.51;100.00
58473;BME280;44775;51.564;5.460;2024-01-16T12:06:36;100588.94;;;3.48;100.00
58473;BME280;44775;51.564;5.460;2024-01-16T12:11:38;100569.22;;;3.31;100.00
58473;BME280;44775;51.564;5.460;2024-01-16T12:14:03;100562.31;;;3.19;100.00
58473;BME280;44775;51.564;5.460;2024-01-16T12:16:29;100554.38;;;3.40;100.00
58473;BME280;44775;51.564;5.460;2024-01-16T12:19:05;100562.56;;;3.58;100.00
58473;BME280;44775;51.564;5.460;2024-01-16T12:21:33;100559.25;;;3.66;100.00
58473;BME280;44775;51.564;5.460;2024-01-16T12:23:59;100558.19;;;3.68;100.00
58473;BME280;44775;51.564;5.460;2024-01-16T12:26:24;100557.25;;;3.79;99.99
58473;BME280;44775;51.564;5.460;2024-01-16T12:28:51;100553.97;;;3.66;100.00
58473;BME280;44775;51.564;5.460;2024-01-16T12:31:18;100545.34;;;3.64;100.00
58473;BME280;44775;51.564;5.460;2024-01-16T12:33:43;100539.41;;;3.71;100.00
58473;BME280;44775;51.564;5.460;2024-01-16T12:36:09;100533.69;;;3.66;100.00
58473;BME280;44775;51.564;5.460;2024-01-16T12:38:36;100561.00;;;3.76;100.00
58473;BME280;44775;51.564;5.460;2024-01-16T12:41:02;100558.22;;;3.78;98.61
58473;BME280;44775;51.564;5.460;2024-01-16T12:43:32;100560.09;;;3.66;98.27
58473;BME280;44775;51.564;5.460;2024-01-16T12:45:58;100553.47;;;3.72;98.76
58473;BME280;44775;51.564;5.460;2024-01-16T12:48:25;100555.28;;;3.71;100.00
58473;BME280;44775;51.564;5.460;2024-01-16T12:50:51;100547.88;;;3.65;99.19
58473;BME280;44775;51.564;5.460;2024-01-16T12:53:16;100544.25;;;3.66;97.71